sensor_id;sensor_type;location;lat;lon;timestamp;P1;durP1;ratioP1;P2;durP2;ratioP2
20245;SDS011;10281;54.406;18.556;2023-04-23T00:01:06;10.60;;;6.27;;
20245;SDS011;10281;54.406;18.556;2023-04-23T00:03:34;10.10;;;6.83;;
20245;SDS011;10281;54.406;18.556;2023-04-23T00:06:03;13.87;;;6.60;;
20245;SDS011;10281;54.406;18.556;2023-04-23T00:08:32;10.50;;;6.43;;
20245;SDS011;10281;54.406;18.556;2023-04-23T00:11:00;11.93;;;7.70;;
20245;SDS011;10281;54.406;18.556;2023-04-23T00:13:27;12.70;;;7.47;;
20245;SDS011;10281;54.406;18.556;2023-04-23T00:15:54;13.13;;;7.27;;
20245;SDS011;10281;54.406;18.556;2023-04-23T00:18:21;12.57;;;6.57;;
20245;SDS011;10281;54.406;18.556;2023-04-23T00:20:47;9.97;;;6.17;;
20245;SDS011;10281;54.406;18.556;2023-04-23T00:23:14;10.23;;;6.37;;
20245;SDS011;10281;54.406;18.556;2023-04-23T00:25:41;13.43;;;7.40;;
20245;SDS011;10281;54.406;18.556;2023-04-23T00:28:07;10.47;;;6.10;;
20245;SDS011;10281;54.406;18.556;2023-04-23T00:30:34;9.03;;;6.33;;
20245;SDS011;10281;54.406;18.556;2023-04-23T00:33:01;10.43;;;5.97;;
20245;SDS011;10281;54.406;18.556;2023-04-23T00:35:27;10.00;;;5.60;;
20245;SDS011;10281;54.406;18.556;2023-04-23T00:37:54;9.60;;;6.10;;
20245;SDS011;10281;54.406;18.556;2023-04-23T00:40:21;8.90;;;5.63;;
20245;SDS011;10281;54.406;18.556;2023-04-23T00:42:48;9.37;;;5.97;;
20245;SDS011;10281;54.406;18.556;2023-04-23T00:45:18;10.77;;;5.80;;
20245;SDS011;10281;54.406;18.556;2023-04-23T00:47:45;10.17;;;6.63;;
20245;SDS011;10281;54.406;18.556;2023-04-23T00:50:13;7.60;;;5.40;;
20245;SDS011;10281;54.406;18.556;2023-04-23T00:52:40;8.63;;;5.60;;
20245;SDS011;10281;54.406;18.556;2023-04-23T00:55:06;8.57;;;6.07;;
20245;SDS011;10281;54.406;18.556;2023-04-23T00:57:34;8.97;;;5.77;;
20245;SDS011;10281;54.406;18.556;2023-04-23T01:00:03;10.27;;;6.73;;
20245;SDS011;10281;54.406;18.556;2023-04-23T01:02:31;9.03;;;6.17;;
20245;SDS011;10281;54.406;18.556;2023-04-23T01:05:01;10.90;;;6.07;;
20245;SDS011;10281;54.406;18.556;2023-04-23T01:07:32;10.77;;;6.43;;
20245;SDS011;10281;54.406;18.556;2023-04-23T01:10:00;10.53;;;6.20;;
20245;SDS011;10281;54.406;18.556;2023-04-23T01:12:28;11.87;;;6.37;;
20245;SDS011;10281;54.406;18.556;2023-04-23T01:14:55;13.07;;;6.43;;
20245;SDS011;10281;54.406;18.556;2023-04-23T01:17:21;11.73;;;6.97;;
20245;SDS011;10281;54.406;18.556;2023-04-23T01:19:48;11.20;;;5.90;;
20245;SDS011;10281;54.406;18.556;2023-04-23T01:22:15;10.03;;;6.47;;
20245;SDS011;10281;54.406;18.556;2023-04-23T01:24:42;10.73;;;6.30;;
20245;SDS011;10281;54.406;18.556;2023-04-23T01:27:08;10.30;;;6.23;;
20245;SDS011;10281;54.406;18.556;2023-04-23T01:29:37;7.47;;;5.70;;
20245;SDS011;10281;54.406;18.556;2023-04-23T01:32:04;9.43;;;5.93;;
20245;SDS011;10281;54.406;18.556;2023-04-23T01:34:32;14.10;;;6.20;;
20245;SDS011;10281;54.406;18.556;2023-04-23T01:37:01;8.97;;;5.97;;
20245;SDS011;10281;54.406;18.556;2023-04-23T01:39:29;8.03;;;6.13;;
20245;SDS011;10281;54.406;18.556;2023-04-23T01:41:56;9.13;;;6.40;;
20245;SDS011;10281;54.406;18.556;2023-04-23T01:44:22;11.33;;;6.43;;
20245;SDS011;10281;54.406;18.556;2023-04-23T01:46:49;11.70;;;5.90;;
20245;SDS011;10281;54.406;18.556;2023-04-23T01:49:17;10.07;;;6.20;;
20245;SDS011;10281;54.406;18.556;2023-04-23T01:51:43;10.80;;;6.13;;
20245;SDS011;10281;54.406;18.556;2023-04-23T01:54:10;9.23;;;6.33;;
20245;SDS011;10281;54.406;18.556;2023-04-23T01:56:37;10.57;;;5.63;;
20245;SDS011;10281;54.406;18.556;2023-04-23T01:59:03;8.40;;;5.63;;
20245;SDS011;10281;54.406;18.556;2023-04-23T02:04:07;8.60;;;5.67;;
20245;SDS011;10281;54.406;18.556;2023-04-23T02:06:34;9.50;;;5.80;;
20245;SDS011;10281;54.406;18.556;2023-04-23T02:09:01;8.33;;;5.80;;
20245;SDS011;10281;54.406;18.556;2023-04-23T02:11:28;7.83;;;5.30;;
20245;SDS011;10281;54.406;18.556;2023-04-23T02:13:54;11.80;;;6.13;;
20245;SDS011;10281;54.406;18.556;2023-04-23T02:16:21;8.13;;;6.67;;
20245;SDS011;10281;54.406;18.556;2023-04-23T02:18:49;9.57;;;6.17;;
20245;SDS011;10281;54.406;18.556;2023-04-23T02:21:16;7.60;;;5.40;;
20245;SDS011;10281;54.406;18.556;2023-04-23T02:23:42;8.13;;;5.67;;
20245;SDS011;10281;54.406;18.556;2023-04-23T02:26:09;8.27;;;5.47;;
20245;SDS011;10281;54.406;18.556;2023-04-23T02:28:36;8.30;;;5.73;;
20245;SDS011;10281;54.406;18.556;2023-04-23T02:31:03;8.03;;;5.23;;
20245;SDS011;10281;54.406;18.556;2023-04-23T02:33:31;6.80;;;5.07;;
20245;SDS011;10281;54.406;18.556;2023-04-23T02:35:57;8.33;;;6.10;;
20245;SDS011;10281;54.406;18.556;2023-04-23T02:38:24;8.80;;;5.87;;
20245;SDS011;10281;54.406;18.556;2023-04-23T02:40:51;9.43;;;5.60;;
20245;SDS011;10281;54.406;18.556;2023-04-23T02:43:17;10.93;;;5.83;;
20245;SDS011;10281;54.406;18.556;2023-04-23T02:45:44;8.23;;;5.77;;
20245;SDS011;10281;54.406;18.556;2023-04-23T02:48:10;11.57;;;6.23;;
20245;SDS011;10281;54.406;18.556;2023-04-23T02:50:37;10.87;;;5.83;;
20245;SDS011;10281;54.406;18.556;2023-04-23T02:53:04;10.40;;;6.40;;
20245;SDS011;10281;54.406;18.556;2023-04-23T02:55:30;8.67;;;5.57;;
20245;SDS011;10281;54.406;18.556;2023-04-23T02:57:57;9.60;;;5.37;;
20245;SDS011;10281;54.406;18.556;2023-04-23T03:00:25;8.03;;;5.60;;
20245;SDS011;10281;54.406;18.556;2023-04-23T03:02:52;9.27;;;5.60;;
20245;SDS011;10281;54.406;18.556;2023-04-23T03:05:19;8.57;;;5.70;;
20245;SDS011;10281;54.406;18.556;2023-04-23T03:07:46;10.40;;;5.27;;
20245;SDS011;10281;54.406;18.556;2023-04-23T03:10:12;7.90;;;5.23;;
20245;SDS011;10281;54.406;18.556;2023-04-23T03:12:39;7.67;;;5.33;;
20245;SDS011;10281;54.406;18.556;2023-04-23T03:15:06;8.47;;;5.67;;
20245;SDS011;10281;54.406;18.556;2023-04-23T03:17:32;10.13;;;5.33;;
20245;SDS011;10281;54.406;18.556;2023-04-23T03:19:59;9.27;;;5.63;;
20245;SDS011;10281;54.406;18.556;2023-04-23T03:22:26;11.40;;;5.80;;
20245;SDS011;10281;54.406;18.556;2023-04-23T03:24:53;9.43;;;5.90;;
20245;SDS011;10281;54.406;18.556;2023-04-23T03:27:19;10.37;;;6.17;;
20245;SDS011;10281;54.406;18.556;2023-04-23T03:29:46;8.13;;;6.00;;
20245;SDS011;10281;54.406;18.556;2023-04-23T03:32:12;11.67;;;6.63;;
20245;SDS011;10281;54.406;18.556;2023-04-23T03:34:39;9.37;;;5.70;;
20245;SDS011;10281;54.406;18.556;2023-04-23T03:37:06;11.00;;;6.47;;
20245;SDS011;10281;54.406;18.556;2023-04-23T03:39:32;10.60;;;6.20;;
20245;SDS011;10281;54.406;18.556;2023-04-23T03:41:59;8.73;;;5.80;;
20245;SDS011;10281;54.406;18.556;2023-04-23T03:44:26;10.97;;;6.43;;
20245;SDS011;10281;54.406;18.556;2023-04-23T03:46:53;12.00;;;5.70;;
20245;SDS011;10281;54.406;18.556;2023-04-23T03:49:19;7.90;;;5.47;;
20245;SDS011;10281;54.406;18.556;2023-04-23T03:51:46;9.40;;;5.80;;
20245;SDS011;10281;54.406;18.556;2023-04-23T03:54:12;7.40;;;5.67;;
20245;SDS011;10281;54.406;18.556;2023-04-23T03:56:39;11.87;;;6.00;;
20245;SDS011;10281;54.406;18.556;2023-04-23T03:59:06;11.30;;;6.13;;
20245;SDS011;10281;54.406;18.556;2023-04-23T04:01:33;13.13;;;5.90;;
20245;SDS011;10281;54.406;18.556;2023-04-23T04:04:01;10.50;;;6.23;;
20245;SDS011;10281;54.406;18.556;2023-04-23T04:06:28;8.97;;;5.90;;
20245;SDS011;10281;54.406;18.556;2023-04-23T04:08:54;9.00;;;5.87;;
20245;SDS011;10281;54.406;18.556;2023-04-23T04:11:21;9.97;;;6.10;;
20245;SDS011;10281;54.406;18.556;2023-04-23T04:13:47;12.00;;;6.63;;
20245;SDS011;10281;54.406;18.556;2023-04-23T04:16:14;9.13;;;6.67;;
20245;SDS011;10281;54.406;18.556;2023-04-23T04:18:41;10.93;;;6.77;;
20245;SDS011;10281;54.406;18.556;2023-04-23T04:21:07;10.87;;;6.63;;
20245;SDS011;10281;54.406;18.556;2023-04-23T04:23:34;10.77;;;6.40;;
20245;SDS011;10281;54.406;18.556;2023-04-23T04:26:01;8.70;;;6.10;;
20245;SDS011;10281;54.406;18.556;2023-04-23T04:28:29;11.60;;;5.87;;
20245;SDS011;10281;54.406;18.556;2023-04-23T04:30:57;8.47;;;6.50;;
20245;SDS011;10281;54.406;18.556;2023-04-23T04:33:25;11.80;;;6.27;;
20245;SDS011;10281;54.406;18.556;2023-04-23T04:35:51;9.67;;;6.20;;
20245;SDS011;10281;54.406;18.556;2023-04-23T04:38:19;8.77;;;6.20;;
20245;SDS011;10281;54.406;18.556;2023-04-23T04:40:46;9.57;;;6.10;;
20245;SDS011;10281;54.406;18.556;2023-04-23T04:43:15;10.40;;;6.90;;
20245;SDS011;10281;54.406;18.556;2023-04-23T04:45:41;7.77;;;6.00;;
20245;SDS011;10281;54.406;18.556;2023-04-23T04:48:09;9.10;;;5.60;;
20245;SDS011;10281;54.406;18.556;2023-04-23T04:50:35;12.20;;;6.03;;
20245;SDS011;10281;54.406;18.556;2023-04-23T04:53:02;7.83;;;6.10;;
20245;SDS011;10281;54.406;18.556;2023-04-23T04:55:29;12.20;;;6.80;;
20245;SDS011;10281;54.406;18.556;2023-04-23T04:57:56;10.90;;;6.40;;
20245;SDS011;10281;54.406;18.556;2023-04-23T05:00:23;9.47;;;6.60;;
20245;SDS011;10281;54.406;18.556;2023-04-23T05:02:53;9.13;;;6.53;;
20245;SDS011;10281;54.406;18.556;2023-04-23T05:05:21;8.43;;;6.83;;
20245;SDS011;10281;54.406;18.556;2023-04-23T05:07:49;10.00;;;6.93;;
20245;SDS011;10281;54.406;18.556;2023-04-23T05:10:16;10.63;;;6.63;;
20245;SDS011;10281;54.406;18.556;2023-04-23T05:12:42;9.17;;;6.93;;
20245;SDS011;10281;54.406;18.556;2023-04-23T05:15:10;10.70;;;6.47;;
20245;SDS011;10281;54.406;18.556;2023-04-23T05:17:38;10.97;;;6.70;;
20245;SDS011;10281;54.406;18.556;2023-04-23T05:20:06;8.97;;;6.80;;
20245;SDS011;10281;54.406;18.556;2023-04-23T05:22:36;11.27;;;6.97;;
20245;SDS011;10281;54.406;18.556;2023-04-23T05:25:04;11.70;;;7.00;;
20245;SDS011;10281;54.406;18.556;2023-04-23T05:27:32;12.60;;;7.17;;
20245;SDS011;10281;54.406;18.556;2023-04-23T05:30:01;8.77;;;7.07;;
20245;SDS011;10281;54.406;18.556;2023-04-23T05:32:30;10.90;;;7.73;;
20245;SDS011;10281;54.406;18.556;2023-04-23T05:34:57;11.53;;;6.97;;
20245;SDS011;10281;54.406;18.556;2023-04-23T05:37:24;11.93;;;7.70;;
20245;SDS011;10281;54.406;18.556;2023-04-23T05:39:51;9.87;;;7.20;;
20245;SDS011;10281;54.406;18.556;2023-04-23T05:42:18;9.60;;;6.67;;
20245;SDS011;10281;54.406;18.556;2023-04-23T05:44:44;11.47;;;6.87;;
20245;SDS011;10281;54.406;18.556;2023-04-23T05:47:11;8.53;;;6.80;;
20245;SDS011;10281;54.406;18.556;2023-04-23T05:49:39;11.03;;;6.80;;
20245;SDS011;10281;54.406;18.556;2023-04-23T05:52:06;9.40;;;6.90;;
20245;SDS011;10281;54.406;18.556;2023-04-23T05:54:33;9.57;;;7.43;;
20245;SDS011;10281;54.406;18.556;2023-04-23T05:56:59;9.03;;;6.70;;
20245;SDS011;10281;54.406;18.556;2023-04-23T05:59:27;9.57;;;7.27;;
20245;SDS011;10281;54.406;18.556;2023-04-23T06:01:54;10.57;;;6.83;;
20245;SDS011;10281;54.406;18.556;2023-04-23T06:04:20;10.17;;;6.70;;
20245;SDS011;10281;54.406;18.556;2023-04-23T06:06:47;12.10;;;7.23;;
20245;SDS011;10281;54.406;18.556;2023-04-23T06:09:14;8.50;;;6.53;;
20245;SDS011;10281;54.406;18.556;2023-04-23T06:11:40;10.97;;;7.37;;
20245;SDS011;10281;54.406;18.556;2023-04-23T06:14:07;11.43;;;7.30;;
20245;SDS011;10281;54.406;18.556;2023-04-23T06:16:34;9.80;;;6.77;;
20245;SDS011;10281;54.406;18.556;2023-04-23T06:19:00;9.50;;;6.77;;
20245;SDS011;10281;54.406;18.556;2023-04-23T06:21:28;12.10;;;7.07;;
20245;SDS011;10281;54.406;18.556;2023-04-23T06:23:55;9.83;;;6.63;;
20245;SDS011;10281;54.406;18.556;2023-04-23T06:26:21;8.90;;;6.50;;
20245;SDS011;10281;54.406;18.556;2023-04-23T06:28:48;10.57;;;6.00;;
20245;SDS011;10281;54.406;18.556;2023-04-23T06:31:14;9.67;;;6.60;;
20245;SDS011;10281;54.406;18.556;2023-04-23T06:33:41;8.93;;;6.87;;
20245;SDS011;10281;54.406;18.556;2023-04-23T06:36:08;9.20;;;7.13;;
20245;SDS011;10281;54.406;18.556;2023-04-23T06:38:35;14.07;;;6.70;;
20245;SDS011;10281;54.406;18.556;2023-04-23T06:41:03;8.50;;;6.77;;
20245;SDS011;10281;54.406;18.556;2023-04-23T06:43:30;16.10;;;7.40;;
20245;SDS011;10281;54.406;18.556;2023-04-23T06:45:57;8.70;;;6.70;;
20245;SDS011;10281;54.406;18.556;2023-04-23T06:48:23;7.23;;;6.17;;
20245;SDS011;10281;54.406;18.556;2023-04-23T06:50:50;14.10;;;7.17;;
20245;SDS011;10281;54.406;18.556;2023-04-23T06:53:17;9.77;;;7.43;;
20245;SDS011;10281;54.406;18.556;2023-04-23T06:55:44;9.30;;;7.07;;
20245;SDS011;10281;54.406;18.556;2023-04-23T06:58:10;12.10;;;7.20;;
20245;SDS011;10281;54.406;18.556;2023-04-23T07:00:37;9.93;;;7.30;;
20245;SDS011;10281;54.406;18.556;2023-04-23T07:03:04;11.43;;;6.73;;
20245;SDS011;10281;54.406;18.556;2023-04-23T07:05:30;8.60;;;7.17;;
20245;SDS011;10281;54.406;18.556;2023-04-23T07:07:57;9.07;;;6.30;;
20245;SDS011;10281;54.406;18.556;2023-04-23T07:10:23;12.07;;;6.63;;
20245;SDS011;10281;54.406;18.556;2023-04-23T07:12:50;8.33;;;6.97;;
20245;SDS011;10281;54.406;18.556;2023-04-23T07:15:16;11.53;;;7.17;;
20245;SDS011;10281;54.406;18.556;2023-04-23T07:17:43;10.43;;;7.03;;
20245;SDS011;10281;54.406;18.556;2023-04-23T07:20:10;10.10;;;7.30;;
20245;SDS011;10281;54.406;18.556;2023-04-23T07:22:37;8.37;;;6.67;;
20245;SDS011;10281;54.406;18.556;2023-04-23T07:25:04;8.00;;;6.73;;
20245;SDS011;10281;54.406;18.556;2023-04-23T07:27:33;9.50;;;7.03;;
20245;SDS011;10281;54.406;18.556;2023-04-23T07:30:00;8.83;;;7.10;;
20245;SDS011;10281;54.406;18.556;2023-04-23T07:32:26;9.60;;;6.93;;
20245;SDS011;10281;54.406;18.556;2023-04-23T07:34:53;10.00;;;7.30;;
20245;SDS011;10281;54.406;18.556;2023-04-23T07:37:21;13.30;;;8.87;;
20245;SDS011;10281;54.406;18.556;2023-04-23T07:39:48;13.97;;;7.37;;
20245;SDS011;10281;54.406;18.556;2023-04-23T07:42:15;8.50;;;6.90;;
20245;SDS011;10281;54.406;18.556;2023-04-23T07:44:41;10.10;;;6.93;;
20245;SDS011;10281;54.406;18.556;2023-04-23T07:47:08;11.13;;;7.00;;
20245;SDS011;10281;54.406;18.556;2023-04-23T07:49:35;10.37;;;7.33;;
20245;SDS011;10281;54.406;18.556;2023-04-23T07:52:02;9.10;;;7.57;;
20245;SDS011;10281;54.406;18.556;2023-04-23T07:54:29;10.93;;;8.13;;
20245;SDS011;10281;54.406;18.556;2023-04-23T07:56:55;10.50;;;8.20;;
20245;SDS011;10281;54.406;18.556;2023-04-23T07:59:22;12.33;;;7.60;;
20245;SDS011;10281;54.406;18.556;2023-04-23T08:01:49;9.73;;;7.43;;
20245;SDS011;10281;54.406;18.556;2023-04-23T08:04:16;8.60;;;7.10;;
20245;SDS011;10281;54.406;18.556;2023-04-23T08:06:43;11.10;;;8.03;;
20245;SDS011;10281;54.406;18.556;2023-04-23T08:09:09;13.93;;;7.37;;
20245;SDS011;10281;54.406;18.556;2023-04-23T08:11:36;9.37;;;7.63;;
20245;SDS011;10281;54.406;18.556;2023-04-23T08:14:03;10.77;;;7.50;;
20245;SDS011;10281;54.406;18.556;2023-04-23T08:16:29;10.23;;;7.43;;
20245;SDS011;10281;54.406;18.556;2023-04-23T08:18:56;9.80;;;7.03;;
20245;SDS011;10281;54.406;18.556;2023-04-23T08:21:22;9.70;;;7.30;;
20245;SDS011;10281;54.406;18.556;2023-04-23T08:23:51;9.03;;;7.53;;
20245;SDS011;10281;54.406;18.556;2023-04-23T08:26:18;14.77;;;8.10;;
20245;SDS011;10281;54.406;18.556;2023-04-23T08:28:45;11.80;;;7.70;;
20245;SDS011;10281;54.406;18.556;2023-04-23T08:31:12;10.57;;;7.80;;
20245;SDS011;10281;54.406;18.556;2023-04-23T08:33:41;8.87;;;6.97;;
20245;SDS011;10281;54.406;18.556;2023-04-23T08:36:07;10.10;;;7.17;;
20245;SDS011;10281;54.406;18.556;2023-04-23T08:38:34;12.97;;;7.33;;
20245;SDS011;10281;54.406;18.556;2023-04-23T08:41:01;9.57;;;7.20;;
20245;SDS011;10281;54.406;18.556;2023-04-23T08:43:33;12.27;;;6.73;;
20245;SDS011;10281;54.406;18.556;2023-04-23T08:46:04;8.63;;;6.60;;
20245;SDS011;10281;54.406;18.556;2023-04-23T08:54:04;8.97;;;6.00;;
20245;SDS011;10281;54.406;18.556;2023-04-23T08:56:34;9.87;;;6.23;;
20245;SDS011;10281;54.406;18.556;2023-04-23T08:59:01;7.00;;;6.30;;
20245;SDS011;10281;54.406;18.556;2023-04-23T09:01:29;9.83;;;6.43;;
20245;SDS011;10281;54.406;18.556;2023-04-23T09:03:56;9.47;;;6.13;;
20245;SDS011;10281;54.406;18.556;2023-04-23T09:06:23;9.07;;;6.43;;
20245;SDS011;10281;54.406;18.556;2023-04-23T09:08:51;10.27;;;6.60;;
20245;SDS011;10281;54.406;18.556;2023-04-23T09:11:17;9.93;;;6.57;;
20245;SDS011;10281;54.406;18.556;2023-04-23T09:13:45;7.80;;;6.20;;
20245;SDS011;10281;54.406;18.556;2023-04-23T09:16:12;9.10;;;6.60;;
20245;SDS011;10281;54.406;18.556;2023-04-23T09:18:38;11.63;;;6.67;;
20245;SDS011;10281;54.406;18.556;2023-04-23T09:21:05;9.73;;;6.90;;
20245;SDS011;10281;54.406;18.556;2023-04-23T09:23:32;7.67;;;6.10;;
20245;SDS011;10281;54.406;18.556;2023-04-23T09:25:59;7.73;;;6.63;;
20245;SDS011;10281;54.406;18.556;2023-04-23T09:28:34;7.10;;;6.10;;
20245;SDS011;10281;54.406;18.556;2023-04-23T09:31:03;6.87;;;6.10;;
20245;SDS011;10281;54.406;18.556;2023-04-23T09:33:33;9.80;;;6.20;;
20245;SDS011;10281;54.406;18.556;2023-04-23T09:36:08;9.40;;;6.33;;
20245;SDS011;10281;54.406;18.556;2023-04-23T09:38:38;7.73;;;6.10;;
20245;SDS011;10281;54.406;18.556;2023-04-23T09:41:26;7.90;;;5.67;;
20245;SDS011;10281;54.406;18.556;2023-04-23T09:43:56;9.50;;;6.17;;
20245;SDS011;10281;54.406;18.556;2023-04-23T09:49:02;7.37;;;5.73;;
20245;SDS011;10281;54.406;18.556;2023-04-23T09:51:35;7.87;;;5.53;;
20245;SDS011;10281;54.406;18.556;2023-04-23T09:54:03;8.50;;;5.13;;
20245;SDS011;10281;54.406;18.556;2023-04-23T09:56:32;8.90;;;6.10;;
20245;SDS011;10281;54.406;18.556;2023-04-23T09:58:59;8.57;;;5.73;;
20245;SDS011;10281;54.406;18.556;2023-04-23T10:01:27;7.97;;;5.60;;
20245;SDS011;10281;54.406;18.556;2023-04-23T10:06:28;7.53;;;5.37;;
20245;SDS011;10281;54.406;18.556;2023-04-23T10:08:56;9.53;;;5.90;;
20245;SDS011;10281;54.406;18.556;2023-04-23T10:11:23;6.47;;;5.70;;
20245;SDS011;10281;54.406;18.556;2023-04-23T10:13:50;7.37;;;5.50;;
20245;SDS011;10281;54.406;18.556;2023-04-23T10:16:20;6.03;;;5.20;;
20245;SDS011;10281;54.406;18.556;2023-04-23T10:18:49;8.57;;;5.33;;
20245;SDS011;10281;54.406;18.556;2023-04-23T10:21:17;9.63;;;5.17;;
20245;SDS011;10281;54.406;18.556;2023-04-23T10:23:46;8.37;;;5.67;;
20245;SDS011;10281;54.406;18.556;2023-04-23T10:26:13;8.37;;;5.27;;
20245;SDS011;10281;54.406;18.556;2023-04-23T10:28:43;7.13;;;5.07;;
20245;SDS011;10281;54.406;18.556;2023-04-23T10:31:12;9.93;;;5.90;;
20245;SDS011;10281;54.406;18.556;2023-04-23T10:33:39;11.23;;;5.03;;
20245;SDS011;10281;54.406;18.556;2023-04-23T10:36:08;8.53;;;5.43;;
20245;SDS011;10281;54.406;18.556;2023-04-23T10:38:35;6.00;;;5.10;;
20245;SDS011;10281;54.406;18.556;2023-04-23T10:41:02;9.87;;;5.57;;
20245;SDS011;10281;54.406;18.556;2023-04-23T10:43:30;5.80;;;5.20;;
20245;SDS011;10281;54.406;18.556;2023-04-23T10:45:56;7.13;;;5.13;;
20245;SDS011;10281;54.406;18.556;2023-04-23T10:48:24;7.10;;;5.07;;
20245;SDS011;10281;54.406;18.556;2023-04-23T10:50:57;8.07;;;5.20;;
20245;SDS011;10281;54.406;18.556;2023-04-23T10:53:25;6.23;;;5.03;;
20245;SDS011;10281;54.406;18.556;2023-04-23T10:56:03;7.70;;;5.00;;
20245;SDS011;10281;54.406;18.556;2023-04-23T10:58:46;9.03;;;4.73;;
20245;SDS011;10281;54.406;18.556;2023-04-23T11:01:05;4.93;;;4.37;;
20245;SDS011;10281;54.406;18.556;2023-04-23T11:03:35;7.00;;;4.90;;
20245;SDS011;10281;54.406;18.556;2023-04-23T11:06:04;9.10;;;4.93;;
20245;SDS011;10281;54.406;18.556;2023-04-23T11:08:34;6.57;;;4.63;;
20245;SDS011;10281;54.406;18.556;2023-04-23T11:11:05;7.13;;;4.87;;
20245;SDS011;10281;54.406;18.556;2023-04-23T11:13:33;7.40;;;4.67;;
20245;SDS011;10281;54.406;18.556;2023-04-23T11:21:18;7.70;;;4.63;;
20245;SDS011;10281;54.406;18.556;2023-04-23T11:23:44;7.93;;;4.40;;
20245;SDS011;10281;54.406;18.556;2023-04-23T11:26:13;5.10;;;4.23;;
20245;SDS011;10281;54.406;18.556;2023-04-23T11:28:43;5.43;;;3.87;;
20245;SDS011;10281;54.406;18.556;2023-04-23T11:31:12;6.90;;;3.73;;
20245;SDS011;10281;54.406;18.556;2023-04-23T11:33:40;8.30;;;4.13;;
20245;SDS011;10281;54.406;18.556;2023-04-23T11:36:07;3.97;;;3.53;;
20245;SDS011;10281;54.406;18.556;2023-04-23T11:38:33;4.70;;;4.23;;
20245;SDS011;10281;54.406;18.556;2023-04-23T11:41:01;8.00;;;3.40;;
20245;SDS011;10281;54.406;18.556;2023-04-23T11:43:30;6.43;;;3.93;;
20245;SDS011;10281;54.406;18.556;2023-04-23T11:45:56;5.23;;;3.63;;
20245;SDS011;10281;54.406;18.556;2023-04-23T11:48:25;9.10;;;3.77;;
20245;SDS011;10281;54.406;18.556;2023-04-23T11:50:51;8.63;;;3.43;;
20245;SDS011;10281;54.406;18.556;2023-04-23T11:53:18;6.17;;;3.83;;
20245;SDS011;10281;54.406;18.556;2023-04-23T11:55:48;4.63;;;3.27;;
20245;SDS011;10281;54.406;18.556;2023-04-23T11:58:16;4.57;;;3.30;;
20245;SDS011;10281;54.406;18.556;2023-04-23T12:00:43;4.60;;;3.60;;
20245;SDS011;10281;54.406;18.556;2023-04-23T12:03:10;4.83;;;3.50;;
20245;SDS011;10281;54.406;18.556;2023-04-23T12:05:39;4.17;;;3.77;;
20245;SDS011;10281;54.406;18.556;2023-04-23T12:08:13;4.77;;;3.20;;
20245;SDS011;10281;54.406;18.556;2023-04-23T12:10:46;5.87;;;3.70;;
20245;SDS011;10281;54.406;18.556;2023-04-23T12:13:17;6.30;;;3.43;;
20245;SDS011;10281;54.406;18.556;2023-04-23T12:15:48;6.13;;;3.47;;
20245;SDS011;10281;54.406;18.556;2023-04-23T12:18:26;4.07;;;3.37;;
20245;SDS011;10281;54.406;18.556;2023-04-23T12:20:53;6.70;;;3.40;;
20245;SDS011;10281;54.406;18.556;2023-04-23T12:23:25;6.27;;;3.47;;
20245;SDS011;10281;54.406;18.556;2023-04-23T12:25:53;7.83;;;3.90;;
20245;SDS011;10281;54.406;18.556;2023-04-23T12:28:22;5.60;;;4.07;;
20245;SDS011;10281;54.406;18.556;2023-04-23T12:30:50;7.27;;;4.13;;
20245;SDS011;10281;54.406;18.556;2023-04-23T12:33:17;4.33;;;3.80;;
20245;SDS011;10281;54.406;18.556;2023-04-23T12:35:48;5.83;;;3.70;;
20245;SDS011;10281;54.406;18.556;2023-04-23T12:38:21;7.93;;;4.10;;
20245;SDS011;10281;54.406;18.556;2023-04-23T12:40:51;5.03;;;4.30;;
20245;SDS011;10281;54.406;18.556;2023-04-23T12:43:19;9.50;;;4.30;;
20245;SDS011;10281;54.406;18.556;2023-04-23T12:45:46;6.40;;;4.17;;
20245;SDS011;10281;54.406;18.556;2023-04-23T12:48:13;7.43;;;3.97;;
20245;SDS011;10281;54.406;18.556;2023-04-23T12:50:40;7.30;;;4.40;;
20245;SDS011;10281;54.406;18.556;2023-04-23T12:53:07;8.07;;;3.87;;
20245;SDS011;10281;54.406;18.556;2023-04-23T12:55:34;7.80;;;3.80;;
20245;SDS011;10281;54.406;18.556;2023-04-23T12:58:01;4.80;;;3.40;;
20245;SDS011;10281;54.406;18.556;2023-04-23T13:00:28;5.60;;;4.07;;
20245;SDS011;10281;54.406;18.556;2023-04-23T13:02:54;4.20;;;3.70;;
20245;SDS011;10281;54.406;18.556;2023-04-23T13:05:21;6.73;;;4.20;;
20245;SDS011;10281;54.406;18.556;2023-04-23T13:07:48;6.40;;;3.83;;
20245;SDS011;10281;54.406;18.556;2023-04-23T13:10:15;5.50;;;3.63;;
20245;SDS011;10281;54.406;18.556;2023-04-23T13:12:42;7.00;;;4.40;;
20245;SDS011;10281;54.406;18.556;2023-04-23T13:15:09;4.40;;;3.87;;
20245;SDS011;10281;54.406;18.556;2023-04-23T13:17:37;5.77;;;3.97;;
20245;SDS011;10281;54.406;18.556;2023-04-23T13:20:04;8.68;;;4.90;;
20245;SDS011;10281;54.406;18.556;2023-04-23T13:22:32;7.50;;;4.30;;
20245;SDS011;10281;54.406;18.556;2023-04-23T13:24:58;6.90;;;4.23;;
20245;SDS011;10281;54.406;18.556;2023-04-23T13:27:26;6.03;;;3.50;;
20245;SDS011;10281;54.406;18.556;2023-04-23T13:29:54;5.27;;;3.50;;
20245;SDS011;10281;54.406;18.556;2023-04-23T13:32:21;6.60;;;4.07;;
20245;SDS011;10281;54.406;18.556;2023-04-23T13:34:50;7.05;;;3.98;;
20245;SDS011;10281;54.406;18.556;2023-04-23T13:37:16;7.30;;;3.90;;
20245;SDS011;10281;54.406;18.556;2023-04-23T13:39:43;5.87;;;3.80;;
20245;SDS011;10281;54.406;18.556;2023-04-23T13:42:10;7.20;;;4.27;;
20245;SDS011;10281;54.406;18.556;2023-04-23T13:44:37;6.77;;;4.23;;
20245;SDS011;10281;54.406;18.556;2023-04-23T13:47:03;10.33;;;4.60;;
20245;SDS011;10281;54.406;18.556;2023-04-23T13:49:30;7.50;;;3.90;;
20245;SDS011;10281;54.406;18.556;2023-04-23T13:51:56;7.47;;;4.10;;
20245;SDS011;10281;54.406;18.556;2023-04-23T13:54:25;5.33;;;3.87;;
20245;SDS011;10281;54.406;18.556;2023-04-23T13:56:54;7.63;;;4.47;;
20245;SDS011;10281;54.406;18.556;2023-04-23T13:59:20;4.13;;;3.50;;
20245;SDS011;10281;54.406;18.556;2023-04-23T14:01:47;4.73;;;3.83;;
20245;SDS011;10281;54.406;18.556;2023-04-23T14:04:14;3.53;;;3.23;;
20245;SDS011;10281;54.406;18.556;2023-04-23T14:06:42;7.50;;;4.17;;
20245;SDS011;10281;54.406;18.556;2023-04-23T14:09:09;8.15;;;4.12;;
20245;SDS011;10281;54.406;18.556;2023-04-23T14:11:36;7.17;;;4.10;;
20245;SDS011;10281;54.406;18.556;2023-04-23T14:14:04;8.03;;;4.10;;
20245;SDS011;10281;54.406;18.556;2023-04-23T14:16:32;6.93;;;3.87;;
20245;SDS011;10281;54.406;18.556;2023-04-23T14:18:59;5.80;;;3.77;;
20245;SDS011;10281;54.406;18.556;2023-04-23T14:21:26;6.67;;;3.97;;
20245;SDS011;10281;54.406;18.556;2023-04-23T14:23:59;4.60;;;4.03;;
20245;SDS011;10281;54.406;18.556;2023-04-23T14:26:34;7.27;;;3.80;;
20245;SDS011;10281;54.406;18.556;2023-04-23T14:29:03;5.07;;;3.70;;
20245;SDS011;10281;54.406;18.556;2023-04-23T14:31:35;8.20;;;3.70;;
20245;SDS011;10281;54.406;18.556;2023-04-23T14:34:03;7.40;;;4.33;;
20245;SDS011;10281;54.406;18.556;2023-04-23T14:36:30;7.00;;;3.60;;
20245;SDS011;10281;54.406;18.556;2023-04-23T14:38:57;6.17;;;4.20;;
20245;SDS011;10281;54.406;18.556;2023-04-23T14:41:26;6.40;;;3.70;;
20245;SDS011;10281;54.406;18.556;2023-04-23T14:43:52;5.73;;;3.47;;
20245;SDS011;10281;54.406;18.556;2023-04-23T14:46:19;4.67;;;3.60;;
20245;SDS011;10281;54.406;18.556;2023-04-23T14:48:47;6.93;;;3.97;;
20245;SDS011;10281;54.406;18.556;2023-04-23T14:51:13;5.87;;;3.70;;